Terminal Aerodrome Forecast
Issued by NWS

Home | Current Version | Previous Version | Text Only | Print | Product List | Glossary On
Versions: 1 2 3 4 5 6 7 8 9 10 11 12 13
000
FTUS43 KGLD 211120
TAFMCK
TAF
KMCK 211120Z 2112/2212 28016G26KT P6SM SCT250 WS020/35050KT
     FM211400 32025G35KT P6SM BKN150
     FM220000 31011KT P6SM FEW250
     FM220400 28006KT P6SM FEW250=

USA.gov is the U.S. government's official web portal to all federal, state and local government web resources and services.